Terminal Aerodrome Forecast
Issued by NWS Burlington, VT

Home | Current Version | Previous Version | Text Only | Print | Product List | Glossary On
Versions: 1 2 3 4 5 6 7 8 9 10 11 12 13 14 15
000
FTUS41 KBTV 302326
TAFBTV
TAF
KBTV 302326Z 3100/3124 35010KT 4SM -SN BR BKN026 OVC035
      TEMPO 3100/3102 2SM -SN BR OVC026
     FM310200 35012KT P6SM VCSH SCT025 OVC035
     FM310700 34010KT P6SM SCT025
     FM311400 35012G22KT P6SM SCT035=

USA.gov is the U.S. government's official web portal to all federal, state and local government web resources and services.